Airfield :
LOGIN :

Register | Disclaimer

   EN    FR    IT 

 










Legend :    VFR   Marginal VFR   IFR   Intensive IFR   Very Intensive IFR
Visi :
Ceiling :
>= 8 km
>= 3000ft
5 to 8 km
1000 to 3000 ft
1500m to 5 km
500 to 1000 ft
800 to 1500m
200 to 500 ft
< 800m
< 200 ft
Symbols :   Thunderstorms  Fog  Heavy snow  Heavy precipitations  Wind > 20 kt
SIGMETs :     Misc.  Thunderstorms  Icing  Turbulence  Mountain Waves  Volcanic Ashes






- Airport Elevation : 459 ft
- IATA code : CER


LFRC - Cherbourg / Maupertus

CURRENT METAR :
  • 220830Z AUTO 30014KT 270V330 9999 BKN012 BKN019 15/13 Q1015 TEMPO 29015G25KT BECMG BKN020

EXPIRED METARs :
  • 220800Z AUTO 29015KT 9999 BKN014 15/13 Q1014 TEMPO 30015G25KT BECMG BKN020
  • 220730Z AUTO 28016KT 9999 BKN013 15/12 Q1014 TEMPO 30015G25KT BECMG BKN020
  • 220700Z AUTO 29016KT 9999 OVC015 14/12 Q1014 TEMPO 30015G25KT
  • 220630Z AUTO 28014KT 9999 BKN012 BKN041 14/12 Q1014 TEMPO 30015G25KT BECMG BKN020
  • 220600Z AUTO 28015KT 9999 SCT012 BKN047 13/12 Q1013 TEMPO 30015G25KT OVC005
  • 220530Z AUTO 28014KT 9999 BKN010 BKN017 OVC047 13/12 Q1013 TEMPO 30015G25KT BECMG BKN020
  • 220500Z AUTO 29014KT 9999 OVC009 13/12 Q1013
  • 220430Z AUTO 28012KT 9999 OVC009 13/12 Q1013
  • 220400Z AUTO 28012KT 9999 BKN008 OVC014 13/13 Q1012

TAF TAF LFRC
Valid from the 22 at 09:00 until the 22 at 18:00 UTC


220800Z 2209/2218 29012KT 9999 BKN020
PROB40
TEMPO 2209/2210 BKN013
TEMPO 2209/2214 29015G25KT



MET'MAP, your aeronautical weather chart ! - Copyright ORBIFLY December 2007 - Disclaimer

ORBIFLY MET'MAP TEAM :

Programming & Development : Alexandra Zaïnal
Original concept : Baudouin d'Aumeries
Technical & hardware support : Manuel Goepfert
Assistance : Marc-Olivier Méhu




SOURCES & CREDITS :

   NOAA